Archival Weather

Chicago O'Hare International

Chicago, Illinois (KORD)

Report from: Wednesday, February 16, 2022 2:51 PM CST
Current time: Saturday, February 4, 2023 10:07 PM CST

Current weather
Weather history
Weather forecast

Temperature11.1°C (52.0°F)
Dew point6.7°C (44.1°F)
Winds 16 kts (8.2 m/s, 18.4 mph) South-Southwest (210°)
Wind gusts 26 kts (13.4 m/s, 29.9 mph)
Peak wind 33 kts (17 m/s, 38 mph) South-Southwest (210°) at 13:57
Visibility10 mi. (16.1 km)
Clouds Few clouds 2,000 ft. (610 m)
Ceiling: Broken clouds 3,700 ft. (1,128 m)
Overcast 6,000 ft. (1,829 m)
Altimeter29.76 in.Hg (1008 mB)
Relative humidity74 %
Density altitude-138 ft. (-42 m)
Sea-level pressure100.8 kPa (1008 mB, 29.76 in.Hg)
Remarks Automated weather observing station with precipitation discriminator
Pressure falling, then rising
Flight conditions Visual Meteorological Conditions
Raw dataKORD 162051Z 21016G26KT 10SM FEW020 BKN037 OVC060 11/07 A2976 RMK AO2 PK WND 21033/1957 SLP079 T01110067 55005
An unhandled exception has occurred. See browser dev tools for details. Reload 🗙